CYGT

Igloolik Airport

Igloolik, Canada
METAR CYGT 212100Z 08009KT 10SM FEW004 SCT006 BKN010 03/02 A2941 RMK ST1ST2SC4 4.7/0.1/TR/LAST STFD OBS/NEXT 221000Z SLP965
Observed Flight Rules
Jun-21 @ 21:00 UTC (9 hours ago) Marginal Visual Flight Rules
Wind Visibility Clouds
80° at 9 knots 10 miles
  • Few at 400' AGL
  • Scattered at 600' AGL
  • Broken at 1,000' AGL
Temperatures Readings
Current 3°C / 37°F
Dewpoint 2°C / 36°F
Humidity 93%
Altimeter 29.41" Hg
Pressure 996.5 hPa
Elevation 51
METAR CYGT 212100Z 08009KT 10SM FEW004 SCT006 BKN010 03/02 A2941 RMK ST1ST2SC4 4.7/0.1/TR/LAST STFD OBS/NEXT 221000Z SLP965
Observed Flight Rules
Jun-21 @ 21:00 UTC
(9 hours ago)
MVFR
Wind Visibility
80° at 9 knots 10 miles
Clouds
  • Few at 400' AGL
  • Scattered at 600' AGL
  • Broken at 1,000' AGL
Temperature Dewpoint
3°C / 37°F 2°C / 36°F
Humidity Altimeter Pressure
93% 29.41" Hg 996.5 hPa